sensor_id;sensor_type;location;lat;lon;timestamp;P1;durP1;ratioP1;P2;durP2;ratioP2
75236;SDS011;63826;48.100;-1.670;2023-01-30T00:00:18;6.78;;;3.05;;
75236;SDS011;63826;48.100;-1.670;2023-01-30T00:02:44;6.20;;;2.95;;
75236;SDS011;63826;48.100;-1.670;2023-01-30T00:05:10;5.95;;;3.20;;
75236;SDS011;63826;48.100;-1.670;2023-01-30T00:07:36;7.07;;;3.10;;
75236;SDS011;63826;48.100;-1.670;2023-01-30T00:10:02;6.70;;;3.03;;
75236;SDS011;63826;48.100;-1.670;2023-01-30T00:12:29;6.50;;;3.30;;
75236;SDS011;63826;48.100;-1.670;2023-01-30T00:14:55;6.30;;;3.20;;
75236;SDS011;63826;48.100;-1.670;2023-01-30T00:17:20;6.63;;;3.20;;
75236;SDS011;63826;48.100;-1.670;2023-01-30T00:19:47;6.65;;;3.35;;
75236;SDS011;63826;48.100;-1.670;2023-01-30T00:22:12;5.75;;;2.95;;
75236;SDS011;63826;48.100;-1.670;2023-01-30T00:24:38;6.57;;;2.97;;
75236;SDS011;63826;48.100;-1.670;2023-01-30T00:27:04;6.23;;;3.23;;
75236;SDS011;63826;48.100;-1.670;2023-01-30T00:29:30;6.07;;;2.80;;
75236;SDS011;63826;48.100;-1.670;2023-01-30T00:31:56;6.13;;;3.03;;
75236;SDS011;63826;48.100;-1.670;2023-01-30T00:34:22;6.67;;;3.60;;
75236;SDS011;63826;48.100;-1.670;2023-01-30T00:36:48;6.07;;;3.03;;
75236;SDS011;63826;48.100;-1.670;2023-01-30T00:39:14;6.38;;;3.00;;
75236;SDS011;63826;48.100;-1.670;2023-01-30T00:41:40;6.38;;;3.30;;
75236;SDS011;63826;48.100;-1.670;2023-01-30T00:44:25;6.90;;;3.00;;
75236;SDS011;63826;48.100;-1.670;2023-01-30T00:47:10;5.65;;;3.08;;
75236;SDS011;63826;48.100;-1.670;2023-01-30T00:49:36;5.40;;;3.00;;
75236;SDS011;63826;48.100;-1.670;2023-01-30T00:52:02;5.90;;;2.92;;
75236;SDS011;63826;48.100;-1.670;2023-01-30T00:54:29;6.68;;;2.83;;
75236;SDS011;63826;48.100;-1.670;2023-01-30T00:56:55;6.25;;;2.97;;
75236;SDS011;63826;48.100;-1.670;2023-01-30T00:59:21;5.88;;;2.90;;
75236;SDS011;63826;48.100;-1.670;2023-01-30T01:01:47;5.63;;;2.75;;
75236;SDS011;63826;48.100;-1.670;2023-01-30T01:04:13;7.65;;;3.28;;
75236;SDS011;63826;48.100;-1.670;2023-01-30T01:06:39;5.78;;;2.88;;
75236;SDS011;63826;48.100;-1.670;2023-01-30T01:09:05;5.40;;;2.97;;
75236;SDS011;63826;48.100;-1.670;2023-01-30T01:11:32;5.72;;;2.75;;
75236;SDS011;63826;48.100;-1.670;2023-01-30T01:13:59;6.65;;;2.97;;
75236;SDS011;63826;48.100;-1.670;2023-01-30T01:16:26;6.20;;;3.10;;
75236;SDS011;63826;48.100;-1.670;2023-01-30T01:18:52;6.50;;;2.90;;
75236;SDS011;63826;48.100;-1.670;2023-01-30T01:21:19;4.90;;;2.60;;
75236;SDS011;63826;48.100;-1.670;2023-01-30T01:23:52;5.18;;;2.53;;
75236;SDS011;63826;48.100;-1.670;2023-01-30T01:26:18;6.18;;;2.97;;
75236;SDS011;63826;48.100;-1.670;2023-01-30T01:28:44;4.90;;;2.58;;
75236;SDS011;63826;48.100;-1.670;2023-01-30T01:31:11;5.82;;;2.90;;
75236;SDS011;63826;48.100;-1.670;2023-01-30T01:33:37;5.30;;;2.70;;
75236;SDS011;63826;48.100;-1.670;2023-01-30T01:36:04;5.22;;;2.70;;
75236;SDS011;63826;48.100;-1.670;2023-01-30T01:38:30;5.00;;;2.72;;
75236;SDS011;63826;48.100;-1.670;2023-01-30T01:40:57;6.07;;;2.70;;
75236;SDS011;63826;48.100;-1.670;2023-01-30T01:43:27;5.25;;;2.75;;
75236;SDS011;63826;48.100;-1.670;2023-01-30T01:46:00;4.90;;;2.40;;
75236;SDS011;63826;48.100;-1.670;2023-01-30T01:48:37;4.80;;;2.63;;
75236;SDS011;63826;48.100;-1.670;2023-01-30T01:51:10;5.45;;;2.67;;
75236;SDS011;63826;48.100;-1.670;2023-01-30T01:53:47;5.20;;;2.70;;
75236;SDS011;63826;48.100;-1.670;2023-01-30T01:56:16;5.35;;;2.70;;
75236;SDS011;63826;48.100;-1.670;2023-01-30T01:58:48;5.67;;;2.53;;
75236;SDS011;63826;48.100;-1.670;2023-01-30T02:01:15;5.15;;;2.50;;
75236;SDS011;63826;48.100;-1.670;2023-01-30T02:03:43;5.43;;;2.50;;
75236;SDS011;63826;48.100;-1.670;2023-01-30T02:06:10;4.10;;;2.35;;
75236;SDS011;63826;48.100;-1.670;2023-01-30T02:08:42;5.03;;;2.40;;
75236;SDS011;63826;48.100;-1.670;2023-01-30T02:11:15;5.90;;;2.90;;
75236;SDS011;63826;48.100;-1.670;2023-01-30T02:13:44;5.80;;;2.60;;
75236;SDS011;63826;48.100;-1.670;2023-01-30T02:16:10;5.68;;;2.90;;
75236;SDS011;63826;48.100;-1.670;2023-01-30T02:18:36;5.90;;;2.50;;
75236;SDS011;63826;48.100;-1.670;2023-01-30T02:23:46;5.83;;;2.50;;
75236;SDS011;63826;48.100;-1.670;2023-01-30T02:32:21;4.90;;;2.55;;
75236;SDS011;63826;48.100;-1.670;2023-01-30T02:45:35;5.32;;;2.60;;
75236;SDS011;63826;48.100;-1.670;2023-01-30T02:50:37;5.53;;;2.83;;
75236;SDS011;63826;48.100;-1.670;2023-01-30T02:53:05;7.13;;;2.95;;
75236;SDS011;63826;48.100;-1.670;2023-01-30T02:55:31;5.65;;;2.80;;
75236;SDS011;63826;48.100;-1.670;2023-01-30T02:57:57;5.80;;;2.88;;
75236;SDS011;63826;48.100;-1.670;2023-01-30T03:05:39;5.18;;;2.58;;
75236;SDS011;63826;48.100;-1.670;2023-01-30T03:10:54;6.03;;;2.63;;
75236;SDS011;63826;48.100;-1.670;2023-01-30T03:15:59;5.50;;;2.70;;
75236;SDS011;63826;48.100;-1.670;2023-01-30T03:18:27;5.70;;;2.63;;
75236;SDS011;63826;48.100;-1.670;2023-01-30T03:20:53;6.18;;;2.70;;
75236;SDS011;63826;48.100;-1.670;2023-01-30T03:23:19;5.18;;;2.60;;
75236;SDS011;63826;48.100;-1.670;2023-01-30T03:25:45;5.10;;;2.73;;
75236;SDS011;63826;48.100;-1.670;2023-01-30T03:28:13;5.00;;;2.67;;
75236;SDS011;63826;48.100;-1.670;2023-01-30T03:30:41;4.97;;;2.30;;
75236;SDS011;63826;48.100;-1.670;2023-01-30T03:33:06;4.28;;;2.30;;
75236;SDS011;63826;48.100;-1.670;2023-01-30T03:35:32;4.63;;;2.17;;
75236;SDS011;63826;48.100;-1.670;2023-01-30T03:37:59;4.28;;;2.28;;
75236;SDS011;63826;48.100;-1.670;2023-01-30T03:40:24;5.18;;;2.50;;
75236;SDS011;63826;48.100;-1.670;2023-01-30T03:42:51;4.18;;;2.10;;
75236;SDS011;63826;48.100;-1.670;2023-01-30T03:45:16;4.90;;;2.30;;
75236;SDS011;63826;48.100;-1.670;2023-01-30T03:47:42;4.68;;;2.17;;
75236;SDS011;63826;48.100;-1.670;2023-01-30T03:50:09;5.32;;;2.10;;
75236;SDS011;63826;48.100;-1.670;2023-01-30T03:52:35;5.00;;;2.17;;
75236;SDS011;63826;48.100;-1.670;2023-01-30T03:55:01;5.15;;;2.30;;
75236;SDS011;63826;48.100;-1.670;2023-01-30T03:57:27;4.87;;;2.30;;
75236;SDS011;63826;48.100;-1.670;2023-01-30T03:59:53;4.93;;;2.05;;
75236;SDS011;63826;48.100;-1.670;2023-01-30T04:02:19;4.95;;;1.92;;
75236;SDS011;63826;48.100;-1.670;2023-01-30T04:04:47;3.63;;;2.13;;
75236;SDS011;63826;48.100;-1.670;2023-01-30T04:07:13;5.57;;;2.23;;
75236;SDS011;63826;48.100;-1.670;2023-01-30T04:09:39;3.60;;;1.88;;
75236;SDS011;63826;48.100;-1.670;2023-01-30T04:12:06;4.88;;;2.20;;
75236;SDS011;63826;48.100;-1.670;2023-01-30T04:14:32;4.13;;;1.75;;
75236;SDS011;63826;48.100;-1.670;2023-01-30T04:16:58;4.38;;;2.25;;
75236;SDS011;63826;48.100;-1.670;2023-01-30T04:19:24;4.53;;;1.90;;
75236;SDS011;63826;48.100;-1.670;2023-01-30T04:21:50;4.93;;;2.10;;
75236;SDS011;63826;48.100;-1.670;2023-01-30T04:24:16;4.82;;;2.00;;
75236;SDS011;63826;48.100;-1.670;2023-01-30T04:26:42;3.80;;;1.90;;
75236;SDS011;63826;48.100;-1.670;2023-01-30T04:29:08;3.80;;;1.97;;
75236;SDS011;63826;48.100;-1.670;2023-01-30T04:31:34;4.05;;;1.90;;
75236;SDS011;63826;48.100;-1.670;2023-01-30T04:34:00;4.55;;;1.90;;
75236;SDS011;63826;48.100;-1.670;2023-01-30T04:36:26;4.50;;;2.10;;
75236;SDS011;63826;48.100;-1.670;2023-01-30T04:38:53;4.78;;;2.00;;
75236;SDS011;63826;48.100;-1.670;2023-01-30T04:41:21;4.43;;;1.80;;
75236;SDS011;63826;48.100;-1.670;2023-01-30T04:43:47;3.83;;;1.88;;
75236;SDS011;63826;48.100;-1.670;2023-01-30T04:46:13;3.42;;;1.90;;
75236;SDS011;63826;48.100;-1.670;2023-01-30T04:48:39;4.05;;;1.90;;
75236;SDS011;63826;48.100;-1.670;2023-01-30T04:51:05;3.22;;;1.58;;
75236;SDS011;63826;48.100;-1.670;2023-01-30T04:53:31;4.93;;;1.97;;
75236;SDS011;63826;48.100;-1.670;2023-01-30T04:55:57;4.35;;;1.88;;
75236;SDS011;63826;48.100;-1.670;2023-01-30T04:58:23;3.85;;;1.90;;
75236;SDS011;63826;48.100;-1.670;2023-01-30T05:00:49;3.80;;;1.80;;
75236;SDS011;63826;48.100;-1.670;2023-01-30T05:03:15;3.67;;;1.75;;
75236;SDS011;63826;48.100;-1.670;2023-01-30T05:05:41;4.50;;;1.73;;
75236;SDS011;63826;48.100;-1.670;2023-01-30T05:08:07;4.07;;;1.90;;
75236;SDS011;63826;48.100;-1.670;2023-01-30T05:10:33;4.80;;;2.00;;
75236;SDS011;63826;48.100;-1.670;2023-01-30T05:13:03;3.55;;;1.73;;
75236;SDS011;63826;48.100;-1.670;2023-01-30T05:15:29;4.82;;;1.70;;
75236;SDS011;63826;48.100;-1.670;2023-01-30T05:17:55;3.30;;;1.50;;
75236;SDS011;63826;48.100;-1.670;2023-01-30T05:20:21;3.00;;;1.38;;
75236;SDS011;63826;48.100;-1.670;2023-01-30T05:22:47;2.80;;;1.35;;
75236;SDS011;63826;48.100;-1.670;2023-01-30T05:25:13;3.15;;;1.42;;
75236;SDS011;63826;48.100;-1.670;2023-01-30T05:27:39;4.20;;;1.60;;
75236;SDS011;63826;48.100;-1.670;2023-01-30T05:30:05;3.83;;;1.45;;
75236;SDS011;63826;48.100;-1.670;2023-01-30T05:32:31;2.65;;;1.30;;
75236;SDS011;63826;48.100;-1.670;2023-01-30T05:34:57;2.85;;;1.50;;
75236;SDS011;63826;48.100;-1.670;2023-01-30T05:37:23;2.90;;;1.40;;
75236;SDS011;63826;48.100;-1.670;2023-01-30T05:39:49;3.75;;;1.27;;
75236;SDS011;63826;48.100;-1.670;2023-01-30T05:42:15;3.85;;;1.63;;
75236;SDS011;63826;48.100;-1.670;2023-01-30T05:44:41;2.88;;;1.50;;
75236;SDS011;63826;48.100;-1.670;2023-01-30T05:47:07;3.72;;;1.50;;
75236;SDS011;63826;48.100;-1.670;2023-01-30T05:49:33;3.55;;;1.48;;
75236;SDS011;63826;48.100;-1.670;2023-01-30T05:51:59;4.37;;;1.50;;
75236;SDS011;63826;48.100;-1.670;2023-01-30T05:54:25;2.60;;;1.40;;
75236;SDS011;63826;48.100;-1.670;2023-01-30T05:56:51;3.20;;;1.40;;
75236;SDS011;63826;48.100;-1.670;2023-01-30T05:59:17;3.60;;;1.60;;
75236;SDS011;63826;48.100;-1.670;2023-01-30T06:01:43;2.47;;;1.30;;
75236;SDS011;63826;48.100;-1.670;2023-01-30T06:04:09;2.83;;;1.33;;
75236;SDS011;63826;48.100;-1.670;2023-01-30T06:06:35;2.67;;;1.00;;
75236;SDS011;63826;48.100;-1.670;2023-01-30T06:09:01;2.72;;;1.30;;
75236;SDS011;63826;48.100;-1.670;2023-01-30T06:11:28;2.88;;;1.33;;
75236;SDS011;63826;48.100;-1.670;2023-01-30T06:13:54;2.95;;;1.15;;
75236;SDS011;63826;48.100;-1.670;2023-01-30T06:16:20;2.63;;;1.30;;
75236;SDS011;63826;48.100;-1.670;2023-01-30T06:18:46;2.53;;;1.20;;
75236;SDS011;63826;48.100;-1.670;2023-01-30T06:21:12;2.03;;;1.08;;
75236;SDS011;63826;48.100;-1.670;2023-01-30T06:23:39;2.35;;;1.13;;
75236;SDS011;63826;48.100;-1.670;2023-01-30T06:26:05;2.65;;;1.30;;
75236;SDS011;63826;48.100;-1.670;2023-01-30T06:28:31;2.37;;;1.00;;
75236;SDS011;63826;48.100;-1.670;2023-01-30T06:30:57;2.50;;;1.10;;
75236;SDS011;63826;48.100;-1.670;2023-01-30T06:33:23;2.00;;;1.10;;
75236;SDS011;63826;48.100;-1.670;2023-01-30T06:35:50;2.33;;;0.90;;
75236;SDS011;63826;48.100;-1.670;2023-01-30T06:38:16;2.08;;;0.90;;
75236;SDS011;63826;48.100;-1.670;2023-01-30T06:40:46;2.53;;;1.10;;
75236;SDS011;63826;48.100;-1.670;2023-01-30T06:43:12;1.50;;;0.80;;
75236;SDS011;63826;48.100;-1.670;2023-01-30T06:45:38;2.22;;;0.95;;
75236;SDS011;63826;48.100;-1.670;2023-01-30T06:48:05;2.30;;;1.00;;
75236;SDS011;63826;48.100;-1.670;2023-01-30T06:50:31;2.13;;;1.05;;
75236;SDS011;63826;48.100;-1.670;2023-01-30T06:53:00;2.60;;;1.10;;
75236;SDS011;63826;48.100;-1.670;2023-01-30T06:55:26;2.15;;;1.00;;
75236;SDS011;63826;48.100;-1.670;2023-01-30T06:58:08;2.40;;;1.02;;
75236;SDS011;63826;48.100;-1.670;2023-01-30T07:00:35;2.92;;;1.02;;
75236;SDS011;63826;48.100;-1.670;2023-01-30T07:03:03;1.65;;;0.90;;
75236;SDS011;63826;48.100;-1.670;2023-01-30T07:05:29;2.60;;;1.07;;
75236;SDS011;63826;48.100;-1.670;2023-01-30T07:07:55;2.30;;;1.27;;
75236;SDS011;63826;48.100;-1.670;2023-01-30T07:10:22;1.98;;;0.90;;
75236;SDS011;63826;48.100;-1.670;2023-01-30T07:12:50;2.75;;;1.30;;
75236;SDS011;63826;48.100;-1.670;2023-01-30T07:15:16;2.83;;;1.20;;
75236;SDS011;63826;48.100;-1.670;2023-01-30T07:17:42;2.45;;;1.02;;
75236;SDS011;63826;48.100;-1.670;2023-01-30T07:20:08;2.60;;;0.80;;
75236;SDS011;63826;48.100;-1.670;2023-01-30T07:22:34;2.60;;;1.20;;
75236;SDS011;63826;48.100;-1.670;2023-01-30T07:25:00;2.67;;;1.27;;
75236;SDS011;63826;48.100;-1.670;2023-01-30T07:27:26;2.55;;;1.10;;
75236;SDS011;63826;48.100;-1.670;2023-01-30T07:29:52;2.43;;;1.10;;
75236;SDS011;63826;48.100;-1.670;2023-01-30T07:32:18;2.53;;;1.08;;
75236;SDS011;63826;48.100;-1.670;2023-01-30T07:34:45;3.28;;;1.60;;
75236;SDS011;63826;48.100;-1.670;2023-01-30T07:37:11;2.83;;;1.15;;
75236;SDS011;63826;48.100;-1.670;2023-01-30T07:39:37;2.83;;;1.30;;
75236;SDS011;63826;48.100;-1.670;2023-01-30T07:42:03;2.15;;;1.13;;
75236;SDS011;63826;48.100;-1.670;2023-01-30T07:44:30;2.92;;;1.10;;
75236;SDS011;63826;48.100;-1.670;2023-01-30T07:46:57;4.68;;;1.10;;
75236;SDS011;63826;48.100;-1.670;2023-01-30T07:49:24;2.65;;;1.25;;
75236;SDS011;63826;48.100;-1.670;2023-01-30T07:51:50;2.80;;;1.20;;
75236;SDS011;63826;48.100;-1.670;2023-01-30T07:54:16;3.30;;;1.35;;
75236;SDS011;63826;48.100;-1.670;2023-01-30T07:56:43;2.45;;;1.20;;
75236;SDS011;63826;48.100;-1.670;2023-01-30T07:59:09;3.00;;;1.30;;
75236;SDS011;63826;48.100;-1.670;2023-01-30T08:01:35;2.20;;;1.10;;
75236;SDS011;63826;48.100;-1.670;2023-01-30T08:04:01;4.20;;;1.30;;
75236;SDS011;63826;48.100;-1.670;2023-01-30T08:06:27;2.40;;;1.10;;
75236;SDS011;63826;48.100;-1.670;2023-01-30T08:08:53;2.88;;;1.30;;
75236;SDS011;63826;48.100;-1.670;2023-01-30T08:11:19;3.42;;;1.30;;
75236;SDS011;63826;48.100;-1.670;2023-01-30T08:13:45;2.60;;;1.30;;
75236;SDS011;63826;48.100;-1.670;2023-01-30T08:16:11;19.33;;;4.87;;
75236;SDS011;63826;48.100;-1.670;2023-01-30T08:18:37;11.65;;;2.65;;
75236;SDS011;63826;48.100;-1.670;2023-01-30T08:21:04;6.93;;;2.30;;
75236;SDS011;63826;48.100;-1.670;2023-01-30T08:23:31;7.10;;;1.80;;
75236;SDS011;63826;48.100;-1.670;2023-01-30T08:25:58;9.80;;;1.70;;
75236;SDS011;63826;48.100;-1.670;2023-01-30T08:28:27;4.80;;;1.70;;
75236;SDS011;63826;48.100;-1.670;2023-01-30T08:30:53;5.33;;;1.70;;
75236;SDS011;63826;48.100;-1.670;2023-01-30T08:33:20;5.93;;;1.85;;
75236;SDS011;63826;48.100;-1.670;2023-01-30T08:35:46;4.18;;;1.50;;
75236;SDS011;63826;48.100;-1.670;2023-01-30T08:38:12;5.13;;;1.88;;
75236;SDS011;63826;48.100;-1.670;2023-01-30T08:40:39;6.45;;;2.13;;
75236;SDS011;63826;48.100;-1.670;2023-01-30T08:43:05;7.18;;;1.92;;
75236;SDS011;63826;48.100;-1.670;2023-01-30T08:45:31;7.85;;;2.10;;
75236;SDS011;63826;48.100;-1.670;2023-01-30T08:47:58;6.10;;;1.98;;
75236;SDS011;63826;48.100;-1.670;2023-01-30T08:50:24;9.77;;;2.25;;
75236;SDS011;63826;48.100;-1.670;2023-01-30T08:52:51;8.50;;;2.55;;
75236;SDS011;63826;48.100;-1.670;2023-01-30T08:55:17;19.92;;;9.43;;
75236;SDS011;63826;48.100;-1.670;2023-01-30T08:57:44;36.95;;;16.33;;
75236;SDS011;63826;48.100;-1.670;2023-01-30T09:00:10;11.00;;;3.20;;
75236;SDS011;63826;48.100;-1.670;2023-01-30T09:02:36;16.50;;;2.45;;
75236;SDS011;63826;48.100;-1.670;2023-01-30T09:05:03;6.32;;;1.90;;
75236;SDS011;63826;48.100;-1.670;2023-01-30T09:07:29;6.15;;;2.00;;
75236;SDS011;63826;48.100;-1.670;2023-01-30T09:09:55;7.32;;;1.95;;
75236;SDS011;63826;48.100;-1.670;2023-01-30T09:12:21;4.30;;;1.43;;
75236;SDS011;63826;48.100;-1.670;2023-01-30T09:14:47;7.18;;;1.60;;
75236;SDS011;63826;48.100;-1.670;2023-01-30T09:17:13;4.40;;;1.80;;
75236;SDS011;63826;48.100;-1.670;2023-01-30T09:19:39;6.40;;;1.90;;
75236;SDS011;63826;48.100;-1.670;2023-01-30T09:22:05;4.45;;;1.67;;
75236;SDS011;63826;48.100;-1.670;2023-01-30T09:24:34;5.53;;;1.23;;
75236;SDS011;63826;48.100;-1.670;2023-01-30T09:27:00;5.22;;;1.83;;
75236;SDS011;63826;48.100;-1.670;2023-01-30T09:29:26;5.13;;;1.48;;
75236;SDS011;63826;48.100;-1.670;2023-01-30T09:31:53;4.90;;;1.50;;
75236;SDS011;63826;48.100;-1.670;2023-01-30T09:34:20;4.20;;;1.60;;
75236;SDS011;63826;48.100;-1.670;2023-01-30T09:36:51;5.23;;;1.57;;
75236;SDS011;63826;48.100;-1.670;2023-01-30T09:39:17;5.13;;;2.00;;
